<?xml version="1.0" encoding="UTF-8" standalone="no" ?>
<gpx xmlns="http://www.topografix.com/GPX/1/1" xmlns:xsi="http://www.w3.org/2001/XMLSchema-instance" xsi:schemaLocation="http://www.topografix.com/GPX/1/1 http://www.topografix.com/GPX/1/1/gpx.xsd" version="1.1" creator="VisuGPX - https://www.visugpx.com">
  <metadata>
    <name>Trace voile du 25 avril 2016</name>
    <desc><![CDATA[1ère sortie voile de Irène et Bernadette. Multimono sur le lac de Sanguinet.]]></desc>
  </metadata>
  <trk>
    <name><![CDATA[ONmove 100 - 25/04/2016]]></name>
    <trkseg>
      <trkpt lat="44.49339" lon="-1.07995">
        <ele>20</ele>
        <time>2016-04-25T12:45:37Z</time>
      </trkpt>
      <trkpt lat="44.49159" lon="-1.08134">
        <ele>20</ele>
        <time>2016-04-25T12:47:33Z</time>
      </trkpt>
      <trkpt lat="44.48973" lon="-1.08224">
        <ele>20</ele>
        <time>2016-04-25T12:48:53Z</time>
      </trkpt>
      <trkpt lat="44.48863" lon="-1.08312">
        <ele>20</ele>
        <time>2016-04-25T12:49:52Z</time>
      </trkpt>
      <trkpt lat="44.4903" lon="-1.08441">
        <ele>20</ele>
        <time>2016-04-25T12:51:11Z</time>
      </trkpt>
      <trkpt lat="44.49173" lon="-1.08568">
        <ele>20</ele>
        <time>2016-04-25T12:52:22Z</time>
      </trkpt>
      <trkpt lat="44.48999" lon="-1.08664">
        <ele>20</ele>
        <time>2016-04-25T12:53:33Z</time>
      </trkpt>
      <trkpt lat="44.48817" lon="-1.08742">
        <ele>20</ele>
        <time>2016-04-25T12:54:46Z</time>
      </trkpt>
      <trkpt lat="44.48952" lon="-1.08772">
        <ele>20</ele>
        <time>2016-04-25T12:55:48Z</time>
      </trkpt>
      <trkpt lat="44.49078" lon="-1.08844">
        <ele>20</ele>
        <time>2016-04-25T12:56:43Z</time>
      </trkpt>
      <trkpt lat="44.48915" lon="-1.09032">
        <ele>20</ele>
        <time>2016-04-25T12:58:54Z</time>
      </trkpt>
      <trkpt lat="44.4902" lon="-1.0913">
        <ele>20</ele>
        <time>2016-04-25T12:59:52Z</time>
      </trkpt>
      <trkpt lat="44.49124" lon="-1.09221">
        <ele>20</ele>
        <time>2016-04-25T13:00:47Z</time>
      </trkpt>
      <trkpt lat="44.48964" lon="-1.09281">
        <ele>20</ele>
        <time>2016-04-25T13:01:53Z</time>
      </trkpt>
      <trkpt lat="44.48829" lon="-1.0942">
        <ele>20</ele>
        <time>2016-04-25T13:02:54Z</time>
      </trkpt>
      <trkpt lat="44.48987" lon="-1.09554">
        <ele>20</ele>
        <time>2016-04-25T13:04:38Z</time>
      </trkpt>
      <trkpt lat="44.49155" lon="-1.0967">
        <ele>20</ele>
        <time>2016-04-25T13:05:56Z</time>
      </trkpt>
      <trkpt lat="44.49024" lon="-1.09755">
        <ele>20</ele>
        <time>2016-04-25T13:07:03Z</time>
      </trkpt>
      <trkpt lat="44.48894" lon="-1.09862">
        <ele>20</ele>
        <time>2016-04-25T13:08:06Z</time>
      </trkpt>
      <trkpt lat="44.48786" lon="-1.09927">
        <ele>20</ele>
        <time>2016-04-25T13:08:49Z</time>
      </trkpt>
      <trkpt lat="44.4868" lon="-1.10017">
        <ele>20</ele>
        <time>2016-04-25T13:09:48Z</time>
      </trkpt>
      <trkpt lat="44.48852" lon="-1.10088">
        <ele>20</ele>
        <time>2016-04-25T13:11:11Z</time>
      </trkpt>
      <trkpt lat="44.49016" lon="-1.1019">
        <ele>20</ele>
        <time>2016-04-25T13:12:22Z</time>
      </trkpt>
      <trkpt lat="44.49134" lon="-1.10277">
        <ele>20</ele>
        <time>2016-04-25T13:13:15Z</time>
      </trkpt>
      <trkpt lat="44.49259" lon="-1.10323">
        <ele>20</ele>
        <time>2016-04-25T13:14:03Z</time>
      </trkpt>
      <trkpt lat="44.49384" lon="-1.10313">
        <ele>20</ele>
        <time>2016-04-25T13:14:51Z</time>
      </trkpt>
      <trkpt lat="44.49504" lon="-1.10376">
        <ele>20</ele>
        <time>2016-04-25T13:15:39Z</time>
      </trkpt>
      <trkpt lat="44.49621" lon="-1.1042">
        <ele>20</ele>
        <time>2016-04-25T13:16:27Z</time>
      </trkpt>
      <trkpt lat="44.4974" lon="-1.10478">
        <ele>20</ele>
        <time>2016-04-25T13:17:18Z</time>
      </trkpt>
      <trkpt lat="44.49516" lon="-1.1052">
        <ele>20</ele>
        <time>2016-04-25T13:18:54Z</time>
      </trkpt>
      <trkpt lat="44.493" lon="-1.10628">
        <ele>20</ele>
        <time>2016-04-25T13:20:31Z</time>
      </trkpt>
      <trkpt lat="44.49088" lon="-1.10734">
        <ele>20</ele>
        <time>2016-04-25T13:21:53Z</time>
      </trkpt>
      <trkpt lat="44.48882" lon="-1.10863">
        <ele>20</ele>
        <time>2016-04-25T13:23:28Z</time>
      </trkpt>
      <trkpt lat="44.4908" lon="-1.10981">
        <ele>20</ele>
        <time>2016-04-25T13:25:14Z</time>
      </trkpt>
      <trkpt lat="44.4928" lon="-1.11117">
        <ele>20</ele>
        <time>2016-04-25T13:26:36Z</time>
      </trkpt>
      <trkpt lat="44.49403" lon="-1.11175">
        <ele>20</ele>
        <time>2016-04-25T13:27:28Z</time>
      </trkpt>
      <trkpt lat="44.49527" lon="-1.11248">
        <ele>20</ele>
        <time>2016-04-25T13:28:18Z</time>
      </trkpt>
      <trkpt lat="44.49633" lon="-1.1136">
        <ele>20</ele>
        <time>2016-04-25T13:29:11Z</time>
      </trkpt>
      <trkpt lat="44.49735" lon="-1.11466">
        <ele>20</ele>
        <time>2016-04-25T13:30:01Z</time>
      </trkpt>
      <trkpt lat="44.49553" lon="-1.1163">
        <ele>20</ele>
        <time>2016-04-25T13:31:36Z</time>
      </trkpt>
      <trkpt lat="44.49342" lon="-1.11723">
        <ele>20</ele>
        <time>2016-04-25T13:33:01Z</time>
      </trkpt>
      <trkpt lat="44.49223" lon="-1.11752">
        <ele>20</ele>
        <time>2016-04-25T13:33:46Z</time>
      </trkpt>
      <trkpt lat="44.49106" lon="-1.11793">
        <ele>20</ele>
        <time>2016-04-25T13:34:36Z</time>
      </trkpt>
      <trkpt lat="44.48995" lon="-1.11851">
        <ele>20</ele>
        <time>2016-04-25T13:35:28Z</time>
      </trkpt>
      <trkpt lat="44.48875" lon="-1.11902">
        <ele>20</ele>
        <time>2016-04-25T13:36:18Z</time>
      </trkpt>
      <trkpt lat="44.48761" lon="-1.11958">
        <ele>20</ele>
        <time>2016-04-25T13:37:06Z</time>
      </trkpt>
      <trkpt lat="44.48649" lon="-1.12019">
        <ele>20</ele>
        <time>2016-04-25T13:37:51Z</time>
      </trkpt>
      <trkpt lat="44.48533" lon="-1.12072">
        <ele>20</ele>
        <time>2016-04-25T13:38:36Z</time>
      </trkpt>
      <trkpt lat="44.48423" lon="-1.12145">
        <ele>20</ele>
        <time>2016-04-25T13:39:21Z</time>
      </trkpt>
      <trkpt lat="44.48311" lon="-1.12221">
        <ele>20</ele>
        <time>2016-04-25T13:40:08Z</time>
      </trkpt>
      <trkpt lat="44.48196" lon="-1.12272">
        <ele>20</ele>
        <time>2016-04-25T13:40:51Z</time>
      </trkpt>
      <trkpt lat="44.4808" lon="-1.12312">
        <ele>20</ele>
        <time>2016-04-25T13:41:38Z</time>
      </trkpt>
      <trkpt lat="44.47972" lon="-1.12402">
        <ele>20</ele>
        <time>2016-04-25T13:42:31Z</time>
      </trkpt>
      <trkpt lat="44.47891" lon="-1.12542">
        <ele>20</ele>
        <time>2016-04-25T13:43:32Z</time>
      </trkpt>
      <trkpt lat="44.47763" lon="-1.12587">
        <ele>20</ele>
        <time>2016-04-25T13:44:31Z</time>
      </trkpt>
      <trkpt lat="44.47643" lon="-1.12613">
        <ele>20</ele>
        <time>2016-04-25T13:45:24Z</time>
      </trkpt>
      <trkpt lat="44.47522" lon="-1.1265">
        <ele>20</ele>
        <time>2016-04-25T13:46:37Z</time>
      </trkpt>
      <trkpt lat="44.47653" lon="-1.12617">
        <ele>20</ele>
        <time>2016-04-25T13:47:33Z</time>
      </trkpt>
      <trkpt lat="44.47789" lon="-1.12656">
        <ele>20</ele>
        <time>2016-04-25T13:48:34Z</time>
      </trkpt>
      <trkpt lat="44.47904" lon="-1.1275">
        <ele>20</ele>
        <time>2016-04-25T13:49:26Z</time>
      </trkpt>
      <trkpt lat="44.48026" lon="-1.12816">
        <ele>20</ele>
        <time>2016-04-25T13:50:18Z</time>
      </trkpt>
      <trkpt lat="44.48242" lon="-1.12916">
        <ele>20</ele>
        <time>2016-04-25T13:51:51Z</time>
      </trkpt>
      <trkpt lat="44.48453" lon="-1.13032">
        <ele>20</ele>
        <time>2016-04-25T13:53:23Z</time>
      </trkpt>
      <trkpt lat="44.4856" lon="-1.13095">
        <ele>20</ele>
        <time>2016-04-25T13:54:08Z</time>
      </trkpt>
      <trkpt lat="44.48677" lon="-1.13097">
        <ele>20</ele>
        <time>2016-04-25T13:55:01Z</time>
      </trkpt>
      <trkpt lat="44.48905" lon="-1.13164">
        <ele>20</ele>
        <time>2016-04-25T13:56:46Z</time>
      </trkpt>
      <trkpt lat="44.48791" lon="-1.13211">
        <ele>20</ele>
        <time>2016-04-25T13:57:43Z</time>
      </trkpt>
      <trkpt lat="44.48676" lon="-1.13201">
        <ele>20</ele>
        <time>2016-04-25T13:58:26Z</time>
      </trkpt>
      <trkpt lat="44.48452" lon="-1.13237">
        <ele>20</ele>
        <time>2016-04-25T13:59:51Z</time>
      </trkpt>
      <trkpt lat="44.4828" lon="-1.13305">
        <ele>20</ele>
        <time>2016-04-25T14:01:01Z</time>
      </trkpt>
      <trkpt lat="44.4811" lon="-1.13354">
        <ele>20</ele>
        <time>2016-04-25T14:02:21Z</time>
      </trkpt>
      <trkpt lat="44.47927" lon="-1.13342">
        <ele>20</ele>
        <time>2016-04-25T14:04:03Z</time>
      </trkpt>
      <trkpt lat="44.4776" lon="-1.13413">
        <ele>20</ele>
        <time>2016-04-25T14:05:16Z</time>
      </trkpt>
      <trkpt lat="44.47594" lon="-1.135">
        <ele>20</ele>
        <time>2016-04-25T14:06:26Z</time>
      </trkpt>
      <trkpt lat="44.47417" lon="-1.13533">
        <ele>20</ele>
        <time>2016-04-25T14:07:36Z</time>
      </trkpt>
      <trkpt lat="44.47246" lon="-1.13589">
        <ele>20</ele>
        <time>2016-04-25T14:08:46Z</time>
      </trkpt>
      <trkpt lat="44.47083" lon="-1.13683">
        <ele>20</ele>
        <time>2016-04-25T14:10:01Z</time>
      </trkpt>
      <trkpt lat="44.47221" lon="-1.13585">
        <ele>20</ele>
        <time>2016-04-25T14:11:13Z</time>
      </trkpt>
      <trkpt lat="44.47332" lon="-1.13439">
        <ele>20</ele>
        <time>2016-04-25T14:12:24Z</time>
      </trkpt>
      <trkpt lat="44.47427" lon="-1.13276">
        <ele>20</ele>
        <time>2016-04-25T14:13:41Z</time>
      </trkpt>
      <trkpt lat="44.47507" lon="-1.13091">
        <ele>20</ele>
        <time>2016-04-25T14:14:54Z</time>
      </trkpt>
      <trkpt lat="44.47596" lon="-1.12914">
        <ele>20</ele>
        <time>2016-04-25T14:15:56Z</time>
      </trkpt>
      <trkpt lat="44.47711" lon="-1.12785">
        <ele>20</ele>
        <time>2016-04-25T14:16:48Z</time>
      </trkpt>
      <trkpt lat="44.47819" lon="-1.12637">
        <ele>20</ele>
        <time>2016-04-25T14:17:43Z</time>
      </trkpt>
      <trkpt lat="44.47933" lon="-1.12501">
        <ele>20</ele>
        <time>2016-04-25T14:18:38Z</time>
      </trkpt>
      <trkpt lat="44.48052" lon="-1.12371">
        <ele>20</ele>
        <time>2016-04-25T14:19:33Z</time>
      </trkpt>
      <trkpt lat="44.48173" lon="-1.1224">
        <ele>20</ele>
        <time>2016-04-25T14:20:28Z</time>
      </trkpt>
      <trkpt lat="44.48283" lon="-1.12095">
        <ele>20</ele>
        <time>2016-04-25T14:21:28Z</time>
      </trkpt>
      <trkpt lat="44.4838" lon="-1.11922">
        <ele>20</ele>
        <time>2016-04-25T14:22:33Z</time>
      </trkpt>
      <trkpt lat="44.48441" lon="-1.11722">
        <ele>20</ele>
        <time>2016-04-25T14:23:36Z</time>
      </trkpt>
      <trkpt lat="44.485" lon="-1.11523">
        <ele>20</ele>
        <time>2016-04-25T14:24:41Z</time>
      </trkpt>
      <trkpt lat="44.4856" lon="-1.11326">
        <ele>20</ele>
        <time>2016-04-25T14:25:52Z</time>
      </trkpt>
      <trkpt lat="44.48617" lon="-1.11126">
        <ele>20</ele>
        <time>2016-04-25T14:27:12Z</time>
      </trkpt>
      <trkpt lat="44.48671" lon="-1.10932">
        <ele>20</ele>
        <time>2016-04-25T14:28:22Z</time>
      </trkpt>
      <trkpt lat="44.48727" lon="-1.10733">
        <ele>20</ele>
        <time>2016-04-25T14:29:39Z</time>
      </trkpt>
      <trkpt lat="44.48775" lon="-1.10537">
        <ele>20</ele>
        <time>2016-04-25T14:30:46Z</time>
      </trkpt>
      <trkpt lat="44.48826" lon="-1.10338">
        <ele>20</ele>
        <time>2016-04-25T14:31:51Z</time>
      </trkpt>
      <trkpt lat="44.48877" lon="-1.10141">
        <ele>20</ele>
        <time>2016-04-25T14:32:52Z</time>
      </trkpt>
      <trkpt lat="44.48931" lon="-1.09952">
        <ele>20</ele>
        <time>2016-04-25T14:33:53Z</time>
      </trkpt>
      <trkpt lat="44.48964" lon="-1.09742">
        <ele>20</ele>
        <time>2016-04-25T14:34:59Z</time>
      </trkpt>
      <trkpt lat="44.48994" lon="-1.09536">
        <ele>20</ele>
        <time>2016-04-25T14:36:03Z</time>
      </trkpt>
      <trkpt lat="44.49013" lon="-1.0933">
        <ele>20</ele>
        <time>2016-04-25T14:37:06Z</time>
      </trkpt>
      <trkpt lat="44.49048" lon="-1.09123">
        <ele>20</ele>
        <time>2016-04-25T14:38:08Z</time>
      </trkpt>
      <trkpt lat="44.49088" lon="-1.08915">
        <ele>20</ele>
        <time>2016-04-25T14:39:13Z</time>
      </trkpt>
      <trkpt lat="44.49126" lon="-1.08712">
        <ele>20</ele>
        <time>2016-04-25T14:40:22Z</time>
      </trkpt>
      <trkpt lat="44.49184" lon="-1.08519">
        <ele>20</ele>
        <time>2016-04-25T14:41:39Z</time>
      </trkpt>
      <trkpt lat="44.49258" lon="-1.08329">
        <ele>20</ele>
        <time>2016-04-25T14:42:56Z</time>
      </trkpt>
      <trkpt lat="44.49337" lon="-1.08148">
        <ele>20</ele>
        <time>2016-04-25T14:43:58Z</time>
      </trkpt>
      <trkpt lat="44.49432" lon="-1.0798">
        <ele>22</ele>
        <time>2016-04-25T14:49:52Z</time>
      </trkpt>
    </trkseg>
  </trk>
</gpx>